createdAt,value
2018-12-09T00:00:53.674Z,80.53
2018-12-09T00:03:23.035Z,79.40
2018-12-09T00:05:52.394Z,76.80
2018-12-09T00:08:21.757Z,77.20
2018-12-09T00:10:50.955Z,76.85
2018-12-09T00:13:20.452Z,77.87
2018-12-09T00:15:49.843Z,81.47
2018-12-09T00:18:19.237Z,79.72
2018-12-09T00:20:48.650Z,84.30
2018-12-09T00:23:17.976Z,82.05
2018-12-09T00:25:47.255Z,83.97
2018-12-09T00:28:16.524Z,86.25
2018-12-09T00:30:45.776Z,77.08
2018-12-09T00:33:15.192Z,78.17
2018-12-09T00:35:44.660Z,78.45
2018-12-09T00:38:14.025Z,76.55
2018-12-09T00:40:43.375Z,77.87
2018-12-09T00:43:12.785Z,78.70
2018-12-09T00:45:42.124Z,80.80
2018-12-09T00:48:11.395Z,78.80
2018-12-09T00:50:40.776Z,79.45
2018-12-09T00:53:10.183Z,77.22
2018-12-09T00:55:39.390Z,75.65
2018-12-09T00:58:08.797Z,78.33
2018-12-09T01:00:38.195Z,74.00
2018-12-09T01:03:07.521Z,77.97
2018-12-09T01:05:36.995Z,75.97
2018-12-09T01:08:06.105Z,73.42
2018-12-09T01:10:35.634Z,72.03
2018-12-09T01:13:05.014Z,76.90
2018-12-09T01:15:34.419Z,73.62
2018-12-09T01:18:03.708Z,75.95
2018-12-09T01:20:33.040Z,78.10
2018-12-09T01:23:02.408Z,74.30
2018-12-09T01:25:31.844Z,75.32
2018-12-09T01:28:01.222Z,73.33
2018-12-09T01:30:30.685Z,73.92
2018-12-09T01:32:59.959Z,75.00
2018-12-09T01:35:29.327Z,69.82
2018-12-09T01:37:58.638Z,69.03
2018-12-09T01:40:29.938Z,69.62
2018-12-09T01:42:59.279Z,70.20
2018-12-09T01:45:28.491Z,68.90
2018-12-09T01:47:57.807Z,67.37
2018-12-09T01:50:27.102Z,67.70
2018-12-09T01:54:03.812Z,66.02
2018-12-09T01:56:33.491Z,63.17
2018-12-09T01:59:02.782Z,66.60
2018-12-09T02:01:32.199Z,66.57
2018-12-09T02:04:01.592Z,65.25
2018-12-09T02:06:30.940Z,61.70
2018-12-09T02:09:00.399Z,62.55
2018-12-09T02:11:29.937Z,60.40
2018-12-09T02:13:59.214Z,60.50
2018-12-09T02:16:28.554Z,59.95
2018-12-09T02:19:09.479Z,58.80
2018-12-09T02:21:38.813Z,63.13
2018-12-09T02:24:08.177Z,57.13
2018-12-09T02:26:37.803Z,60.03
2018-12-09T02:29:07.305Z,63.15
2018-12-09T02:31:36.723Z,54.40
2018-12-09T02:34:06.223Z,54.30
2018-12-09T02:36:36.120Z,56.45
2018-12-09T02:39:06.070Z,51.77
2018-12-09T02:41:35.363Z,55.10
2018-12-09T02:44:04.742Z,50.83
2018-12-09T02:46:34.242Z,51.75
2018-12-09T02:49:03.753Z,54.70
2018-12-09T02:51:33.074Z,52.60
2018-12-09T02:54:02.463Z,53.40
2018-12-09T02:56:31.787Z,53.42
2018-12-09T02:59:01.369Z,49.30
2018-12-09T03:01:30.593Z,48.17
2018-12-09T03:03:59.981Z,48.48
2018-12-09T03:06:29.406Z,47.70
2018-12-09T03:08:58.728Z,49.65
2018-12-09T03:11:28.098Z,43.60
2018-12-09T03:13:57.395Z,43.50
2018-12-09T03:16:26.735Z,49.27
2018-12-09T03:18:56.824Z,43.50
2018-12-09T03:21:26.275Z,46.85
2018-12-09T03:23:55.508Z,44.70
2018-12-09T03:26:24.830Z,44.63
2018-12-09T03:28:54.127Z,41.98
2018-12-09T03:31:23.426Z,43.23
2018-12-09T03:33:52.912Z,44.65
2018-12-09T03:36:22.212Z,42.80
2018-12-09T03:38:51.615Z,39.38
2018-12-09T03:41:20.960Z,42.78
2018-12-09T03:43:50.346Z,44.15
2018-12-09T03:46:19.616Z,40.05
2018-12-09T03:48:48.951Z,39.48
2018-12-09T03:51:18.859Z,35.95
2018-12-09T03:53:48.287Z,39.18
2018-12-09T03:56:17.673Z,37.85
2018-12-09T03:58:46.964Z,37.25
2018-12-09T04:01:16.415Z,41.42
2018-12-09T04:03:45.692Z,35.70
2018-12-09T04:06:15.173Z,36.73
2018-12-09T04:08:44.571Z,37.42
2018-12-09T04:11:13.987Z,34.75
2018-12-09T04:13:43.471Z,38.23
2018-12-09T04:16:12.724Z,34.65
2018-12-09T04:18:41.986Z,36.15
2018-12-09T04:21:11.256Z,32.90
2018-12-09T04:23:40.403Z,33.02
2018-12-09T04:26:09.656Z,35.15
2018-12-09T04:28:39.099Z,35.15
2018-12-09T04:31:08.499Z,33.90
2018-12-09T04:33:37.916Z,32.05
2018-12-09T04:36:07.224Z,31.17
2018-12-09T04:38:36.463Z,32.50
2018-12-09T04:41:05.887Z,32.05
2018-12-09T04:43:35.204Z,30.40
2018-12-09T04:46:04.611Z,28.85
2018-12-09T04:48:34.028Z,31.55
2018-12-09T04:51:03.328Z,31.02
2018-12-09T04:53:32.619Z,29.77
2018-12-09T04:56:02.171Z,30.60
2018-12-09T04:58:31.522Z,29.65
2018-12-09T05:01:00.940Z,27.02
2018-12-09T05:03:30.116Z,28.60
2018-12-09T05:05:59.449Z,27.55
2018-12-09T05:08:29.240Z,26.33
2018-12-09T05:10:58.668Z,26.62
2018-12-09T05:13:28.047Z,25.57
2018-12-09T05:15:57.370Z,28.47
2018-12-09T05:18:26.560Z,28.05
2018-12-09T05:20:56.045Z,27.15
2018-12-09T05:23:25.459Z,26.45
2018-12-09T05:25:54.759Z,23.52
2018-12-09T05:28:24.170Z,24.92
2018-12-09T05:30:53.782Z,24.00
2018-12-09T05:33:23.263Z,23.77
2018-12-09T05:35:52.584Z,23.20
2018-12-09T05:38:21.979Z,22.73
2018-12-09T05:40:51.755Z,24.52
2018-12-09T05:43:21.307Z,23.98
2018-12-09T05:45:50.715Z,24.47
2018-12-09T05:48:20.059Z,24.70
2018-12-09T05:50:49.416Z,21.05
2018-12-09T05:53:19.015Z,25.15
2018-12-09T05:55:48.544Z,23.35
2018-12-09T05:58:17.850Z,21.17
2018-12-09T06:00:47.122Z,21.87
2018-12-09T06:03:16.439Z,21.02
2018-12-09T06:05:45.728Z,20.05
2018-12-09T06:08:15.272Z,20.25
2018-12-09T06:10:44.527Z,23.98
2018-12-09T06:13:14.063Z,21.02
2018-12-09T06:15:43.765Z,17.65
2018-12-09T06:18:13.035Z,16.82
2018-12-09T06:20:42.643Z,19.40
2018-12-09T06:23:12.169Z,19.45
2018-12-09T06:25:41.484Z,20.55
2018-12-09T06:28:10.902Z,26.40
2018-12-09T06:30:40.193Z,22.45
2018-12-09T06:33:09.515Z,25.12
2018-12-09T06:35:38.863Z,36.00
2018-12-09T06:38:08.243Z,29.20
2018-12-09T06:40:37.776Z,29.57
2018-12-09T06:43:07.086Z,25.85
2018-12-09T06:45:36.604Z,26.80
2018-12-09T06:48:05.905Z,32.75
2018-12-09T06:50:35.210Z,29.00
2018-12-09T06:53:04.434Z,32.50
2018-12-09T06:55:33.892Z,30.15
2018-12-09T06:58:03.248Z,33.98
2018-12-09T07:00:32.701Z,38.53
2018-12-09T07:03:02.150Z,33.08
2018-12-09T07:05:31.459Z,29.15
2018-12-09T07:08:00.852Z,34.18
2018-12-09T07:10:30.324Z,34.73
2018-12-09T07:12:59.801Z,35.83
2018-12-09T07:15:29.030Z,28.70
2018-12-09T07:17:58.346Z,34.65
2018-12-09T07:20:27.780Z,33.20
2018-12-09T07:22:57.031Z,34.80
2018-12-09T07:25:26.554Z,30.45
2018-12-09T07:27:55.984Z,32.38
2018-12-09T07:30:25.263Z,25.97
2018-12-09T07:32:54.476Z,25.48
2018-12-09T07:35:23.951Z,29.48
2018-12-09T07:37:53.367Z,24.67
2018-12-09T07:40:22.751Z,28.42
2018-12-09T07:42:52.136Z,24.98
2018-12-09T07:45:21.399Z,25.90
2018-12-09T07:47:50.921Z,24.60
2018-12-09T07:50:20.183Z,23.90
2018-12-09T07:52:49.524Z,26.80
2018-12-09T07:55:18.882Z,30.65
2018-12-09T07:57:48.390Z,27.20
2018-12-09T08:00:17.684Z,23.95
2018-12-09T08:02:47.104Z,22.35
2018-12-09T08:05:16.426Z,26.73
2018-12-09T08:07:45.926Z,24.45
2018-12-09T08:10:15.377Z,27.22
2018-12-09T08:12:44.704Z,22.45
2018-12-09T08:15:14.018Z,21.45
2018-12-09T08:17:43.321Z,26.95
2018-12-09T08:20:12.603Z,25.35
2018-12-09T08:22:42.133Z,27.22
2018-12-09T08:25:11.403Z,23.67
2018-12-09T08:27:40.712Z,24.35
2018-12-09T08:30:10.025Z,27.60
2018-12-09T08:32:39.315Z,26.25
2018-12-09T08:35:08.660Z,24.27
2018-12-09T08:37:37.959Z,26.68
2018-12-09T08:40:07.268Z,23.77
2018-12-09T08:42:36.412Z,27.67
2018-12-09T08:45:05.828Z,21.82
2018-12-09T08:47:35.236Z,25.88
2018-12-09T08:50:04.635Z,23.42
2018-12-09T08:52:33.937Z,20.92
2018-12-09T08:55:03.280Z,19.02
2018-12-09T08:57:32.552Z,20.92
2018-12-09T09:00:01.863Z,21.62
2018-12-09T09:02:32.767Z,21.82
2018-12-09T09:05:02.067Z,21.33
2018-12-09T09:07:31.479Z,19.15
2018-12-09T09:10:00.889Z,20.48
2018-12-09T09:12:30.402Z,19.45
2018-12-09T09:14:59.760Z,24.27
2018-12-09T09:17:29.032Z,17.70
2018-12-09T09:19:58.587Z,19.48
2018-12-09T09:22:28.257Z,19.65
2018-12-09T09:24:57.603Z,18.23
2018-12-09T09:27:27.059Z,23.80
2018-12-09T09:29:56.440Z,17.52
2018-12-09T09:32:25.730Z,16.85
2018-12-09T09:34:55.075Z,15.43
2018-12-09T09:37:24.232Z,21.57
2018-12-09T09:39:53.523Z,18.62
2018-12-09T09:42:22.845Z,18.95
2018-12-09T09:44:52.220Z,16.90
2018-12-09T09:47:21.643Z,23.92
2018-12-09T09:49:51.095Z,20.12
2018-12-09T09:52:20.346Z,34.00
2018-12-09T09:54:49.917Z,15.93
2018-12-09T09:57:19.085Z,17.85
2018-12-09T09:59:48.368Z,19.10
2018-12-09T10:02:17.732Z,17.85
2018-12-09T10:04:47.139Z,17.82
2018-12-09T10:07:16.480Z,17.12
2018-12-09T10:09:45.768Z,16.85
2018-12-09T10:12:17.028Z,17.15
2018-12-09T10:14:46.315Z,20.37
2018-12-09T10:17:15.676Z,15.20
2018-12-09T10:19:45.044Z,19.23
2018-12-09T10:22:14.414Z,14.28
2018-12-09T10:24:43.858Z,15.63
2018-12-09T10:27:13.232Z,20.23
2018-12-09T10:29:42.543Z,17.90
2018-12-09T10:32:11.862Z,15.80
2018-12-09T10:34:41.331Z,13.50
2018-12-09T10:37:10.741Z,13.90
2018-12-09T10:39:40.029Z,14.87
2018-12-09T10:42:09.434Z,28.23
2018-12-09T10:44:38.816Z,21.07
2018-12-09T10:47:08.037Z,14.55
2018-12-09T10:49:37.551Z,15.98
2018-12-09T10:52:06.951Z,14.80
2018-12-09T10:54:36.017Z,13.05
2018-12-09T10:57:05.421Z,17.23
2018-12-09T10:59:34.656Z,25.43
2018-12-09T11:02:08.833Z,21.20
2018-12-09T11:04:37.968Z,14.28
2018-12-09T11:07:07.275Z,14.07
2018-12-09T11:09:36.764Z,15.40
2018-12-09T11:12:06.256Z,12.23
2018-12-09T11:14:35.694Z,15.00
2018-12-09T11:17:05.152Z,16.30
2018-12-09T11:19:34.524Z,16.23
2018-12-09T11:22:03.762Z,14.98
2018-12-09T11:24:33.174Z,16.17
2018-12-09T11:27:02.473Z,13.45
2018-12-09T11:29:31.699Z,16.02
2018-12-09T11:32:01.199Z,16.85
2018-12-09T11:34:30.633Z,22.80
2018-12-09T11:37:00.006Z,19.00
2018-12-09T11:39:29.406Z,21.25
2018-12-09T11:41:58.723Z,21.95
2018-12-09T11:44:28.213Z,22.80
2018-12-09T11:46:57.644Z,19.20
2018-12-09T11:49:27.134Z,17.30
2018-12-09T11:51:56.439Z,18.73
2018-12-09T11:54:25.756Z,20.00
2018-12-09T11:56:55.219Z,20.52
2018-12-09T11:59:24.561Z,19.98
2018-12-09T12:01:54.027Z,16.75
2018-12-09T12:04:23.359Z,21.15
2018-12-09T12:06:52.587Z,19.75
2018-12-09T12:09:21.939Z,31.82
2018-12-09T12:11:51.399Z,32.38
2018-12-09T12:14:20.541Z,25.80
2018-12-09T12:16:49.763Z,23.95
2018-12-09T12:19:19.169Z,26.48
2018-12-09T12:21:48.471Z,31.87
2018-12-09T12:24:17.655Z,28.20
2018-12-09T12:26:46.972Z,33.42
2018-12-09T12:29:16.399Z,30.00
2018-12-09T12:31:45.844Z,31.07
2018-12-09T12:34:15.168Z,34.18
2018-12-09T12:36:44.666Z,28.83
2018-12-09T12:39:13.986Z,35.35
2018-12-09T12:41:43.307Z,32.00
2018-12-09T12:44:12.786Z,33.85
2018-12-09T12:46:42.192Z,30.12
2018-12-09T12:49:11.595Z,27.60
2018-12-09T12:51:40.880Z,30.97
2018-12-09T12:54:10.399Z,30.12
2018-12-09T12:56:39.892Z,30.97
2018-12-09T12:59:09.191Z,34.00
2018-12-09T13:01:38.521Z,34.13
2018-12-09T13:04:07.709Z,28.80
2018-12-09T13:06:37.112Z,29.75
2018-12-09T13:09:08.049Z,27.15
2018-12-09T13:11:37.471Z,27.90
2018-12-09T13:14:06.854Z,28.75
2018-12-09T13:16:36.159Z,28.27
2018-12-09T13:19:05.459Z,32.53
2018-12-09T13:21:34.796Z,29.80
2018-12-09T13:24:04.239Z,32.90
2018-12-09T13:26:33.446Z,31.37
2018-12-09T13:29:02.743Z,26.80
2018-12-09T13:31:32.147Z,30.27
2018-12-09T13:34:01.589Z,28.00
2018-12-09T13:36:30.973Z,25.05
2018-12-09T13:39:00.094Z,28.45
2018-12-09T13:41:29.595Z,24.82
2018-12-09T13:43:58.781Z,24.07
2018-12-09T13:46:28.172Z,23.20
2018-12-09T13:48:57.565Z,23.98
2018-12-09T13:51:27.003Z,26.05
2018-12-09T13:53:56.279Z,24.47
2018-12-09T13:56:25.696Z,26.90
2018-12-09T13:58:55.080Z,22.77
2018-12-09T14:01:24.376Z,23.90
2018-12-09T14:03:53.807Z,21.27
2018-12-09T14:06:23.652Z,25.80
2018-12-09T14:08:53.006Z,21.70
2018-12-09T14:11:22.460Z,23.98
2018-12-09T14:13:51.795Z,22.60
2018-12-09T14:16:21.223Z,21.48
2018-12-09T14:18:50.684Z,20.37
2018-12-09T14:21:19.939Z,21.02
2018-12-09T14:23:49.323Z,20.80
2018-12-09T14:26:18.741Z,25.57
2018-12-09T14:28:48.280Z,21.73
2018-12-09T14:31:17.656Z,23.07
2018-12-09T14:33:46.951Z,19.25
2018-12-09T14:36:16.176Z,19.35
2018-12-09T14:38:45.640Z,19.00
2018-12-09T14:41:15.044Z,19.42
2018-12-09T14:43:44.464Z,18.55
2018-12-09T14:46:13.854Z,19.65
2018-12-09T14:48:43.269Z,20.70
2018-12-09T14:51:12.746Z,21.60
2018-12-09T14:53:42.360Z,20.45
2018-12-09T14:56:11.805Z,27.85
2018-12-09T14:58:41.187Z,38.35
2018-12-09T15:01:10.616Z,34.63
2018-12-09T15:03:39.915Z,37.25
2018-12-09T15:06:09.379Z,36.42
2018-12-09T15:08:38.452Z,37.15
2018-12-09T15:11:08.421Z,40.17
2018-12-09T15:13:37.708Z,43.60
2018-12-09T15:16:07.218Z,46.55
2018-12-09T15:18:36.626Z,52.13
2018-12-09T15:21:05.797Z,54.95
2018-12-09T15:23:35.137Z,55.35
2018-12-09T15:26:04.550Z,45.35
2018-12-09T15:28:33.878Z,54.90
2018-12-09T15:31:03.153Z,46.80
2018-12-09T15:33:32.527Z,41.35
2018-12-09T15:36:01.507Z,86.02
2018-12-09T15:38:31.014Z,92.20
2018-12-09T15:41:00.210Z,100.18
2018-12-09T15:43:29.556Z,96.45
2018-12-09T15:45:58.941Z,79.80
2018-12-09T15:48:28.355Z,90.35
2018-12-09T15:50:57.928Z,103.72
2018-12-09T15:53:27.488Z,120.55
2018-12-09T15:55:56.793Z,121.02
2018-12-09T15:58:26.176Z,127.60
2018-12-09T16:00:55.684Z,131.87
2018-12-09T16:03:25.077Z,114.08
2018-12-09T16:05:54.568Z,120.15
2018-12-09T16:08:23.997Z,124.47
2018-12-09T16:10:53.385Z,107.83
2018-12-09T16:13:22.701Z,121.77
2018-12-09T16:15:51.993Z,128.25
2018-12-09T16:18:21.377Z,104.63
2018-12-09T16:20:50.626Z,92.65
2018-12-09T16:23:20.020Z,131.52
2018-12-09T16:25:49.179Z,120.00
2018-12-09T16:28:18.591Z,134.55
2018-12-09T16:30:48.046Z,129.42
2018-12-09T16:33:17.306Z,102.67
2018-12-09T16:35:47.538Z,88.58
2018-12-09T16:38:17.096Z,94.37
2018-12-09T16:40:46.491Z,96.50
2018-12-09T16:43:30.112Z,99.30
2018-12-09T16:45:59.479Z,136.45
2018-12-09T16:48:29.371Z,143.70
2018-12-09T16:50:58.610Z,112.62
2018-12-09T16:53:28.304Z,109.75
2018-12-09T16:55:57.744Z,181.12
2018-12-09T16:58:26.878Z,119.87
2018-12-09T17:00:56.191Z,120.75
2018-12-09T17:03:25.608Z,141.60
2018-12-09T17:05:54.977Z,108.67
2018-12-09T17:08:24.116Z,157.32
2018-12-09T17:10:53.436Z,195.00
2018-12-09T17:13:22.805Z,185.30
2018-12-09T17:15:52.301Z,201.07
2018-12-09T17:18:21.723Z,209.07
2018-12-09T17:20:51.238Z,184.22
2018-12-09T17:23:20.649Z,204.60
2018-12-09T17:25:49.959Z,229.32
2018-12-09T17:28:19.208Z,218.25
2018-12-09T17:30:48.445Z,140.70
2018-12-09T17:33:17.847Z,130.72
2018-12-09T17:35:47.237Z,130.15
2018-12-09T17:38:16.646Z,137.68
2018-12-09T17:40:46.200Z,194.35
2018-12-09T17:43:15.584Z,178.38
2018-12-09T17:45:44.958Z,203.65
2018-12-09T17:48:14.476Z,193.00
2018-12-09T17:50:43.884Z,192.68
2018-12-09T17:53:13.267Z,194.40
2018-12-09T17:55:42.579Z,179.15
2018-12-09T17:58:11.908Z,218.50
2018-12-09T18:00:41.159Z,230.25
2018-12-09T18:03:10.491Z,211.75
2018-12-09T18:05:39.860Z,221.22
2018-12-09T18:08:09.244Z,207.52
2018-12-09T18:10:38.888Z,211.15
2018-12-09T18:13:08.304Z,186.32
2018-12-09T18:15:37.694Z,242.15
2018-12-09T18:18:07.144Z,209.90
2018-12-09T18:20:36.561Z,233.10
2018-12-09T18:23:05.909Z,223.47
2018-12-09T18:25:35.426Z,221.85
2018-12-09T18:28:04.839Z,219.05
2018-12-09T18:30:34.125Z,216.38
2018-12-09T18:33:03.540Z,228.80
2018-12-09T18:35:32.956Z,234.30
2018-12-09T18:38:02.103Z,252.10
2018-12-09T18:40:31.401Z,248.20
2018-12-09T18:43:00.878Z,243.97
2018-12-09T18:45:30.363Z,254.47
2018-12-09T18:47:59.591Z,251.77
2018-12-09T18:50:28.970Z,240.03
2018-12-09T18:52:58.387Z,264.82
2018-12-09T18:55:27.823Z,269.10
2018-12-09T18:57:57.196Z,261.65
2018-12-09T19:00:26.612Z,267.60
2018-12-09T19:02:55.999Z,280.67
2018-12-09T19:05:25.335Z,281.08
2018-12-09T19:07:54.613Z,281.38
2018-12-09T19:10:23.923Z,276.77
2018-12-09T19:12:53.452Z,267.70
2018-12-09T19:15:22.829Z,266.10
2018-12-09T19:17:52.228Z,262.05
2018-12-09T19:20:21.658Z,262.77
2018-12-09T19:22:50.935Z,258.77
2018-12-09T19:25:20.225Z,222.33
2018-12-09T19:27:49.453Z,231.63
2018-12-09T19:30:19.784Z,232.25
2018-12-09T19:32:49.163Z,231.17
2018-12-09T19:35:18.552Z,225.38
2018-12-09T19:37:47.756Z,213.47
2018-12-09T19:40:17.054Z,210.95
2018-12-09T19:42:46.369Z,238.25
2018-12-09T19:45:15.746Z,220.90
2018-12-09T19:47:45.192Z,218.90
2018-12-09T19:50:14.603Z,210.15
2018-12-09T19:52:44.122Z,225.40
2018-12-09T19:55:13.376Z,210.48
2018-12-09T19:57:42.760Z,213.77
2018-12-09T20:00:12.191Z,214.23
2018-12-09T20:02:41.643Z,214.95
2018-12-09T20:05:11.121Z,216.50
2018-12-09T20:07:40.608Z,198.25
2018-12-09T20:10:10.374Z,198.47
2018-12-09T20:12:40.121Z,213.43
2018-12-09T20:15:09.689Z,209.67
2018-12-09T20:17:39.020Z,205.60
2018-12-09T20:20:09.495Z,203.37
2018-12-09T20:22:38.892Z,206.10
2018-12-09T20:25:08.333Z,203.80
2018-12-09T20:27:38.418Z,185.65
2018-12-09T20:30:09.106Z,187.82
2018-12-09T20:32:38.682Z,187.85
2018-12-09T20:35:08.148Z,185.93
2018-12-09T20:37:37.590Z,191.65
2018-12-09T20:40:06.986Z,191.47
2018-12-09T20:42:36.316Z,186.92
2018-12-09T20:45:08.119Z,192.82
2018-12-09T20:47:37.811Z,201.65
2018-12-09T20:50:07.464Z,190.73
2018-12-09T20:52:36.877Z,187.50
2018-12-09T20:55:06.540Z,182.40
2018-12-09T20:57:35.926Z,181.72
2018-12-09T21:00:05.260Z,175.10
2018-12-09T21:02:34.568Z,177.32
2018-12-09T21:05:03.690Z,188.07
2018-12-09T21:07:33.750Z,177.12
2018-12-09T21:10:03.087Z,185.35
2018-12-09T21:12:32.592Z,179.32
2018-12-09T21:15:02.175Z,176.07
2018-12-09T21:17:31.609Z,168.65
2018-12-09T21:20:00.815Z,168.87
2018-12-09T21:22:30.183Z,156.57
2018-12-09T21:24:59.737Z,166.97
2018-12-09T21:27:29.559Z,171.50
2018-12-09T21:29:58.953Z,166.90
2018-12-09T21:32:28.241Z,163.57
2018-12-09T21:34:57.697Z,160.45
2018-12-09T21:37:27.108Z,158.35
2018-12-09T21:39:56.425Z,150.22
2018-12-09T21:42:25.840Z,163.55
2018-12-09T21:44:55.144Z,154.57
2018-12-09T21:47:24.238Z,157.52
2018-12-09T21:49:53.595Z,154.27
2018-12-09T21:52:22.863Z,151.87
2018-12-09T21:54:52.037Z,153.85
2018-12-09T21:57:21.338Z,151.93
2018-12-09T21:59:50.761Z,147.40
2018-12-09T22:02:21.996Z,163.60
2018-12-09T22:04:51.291Z,151.22
2018-12-09T22:07:20.691Z,145.80
2018-12-09T22:09:50.100Z,145.17
2018-12-09T22:12:19.383Z,143.43
2018-12-09T22:14:48.880Z,137.00
2018-12-09T22:17:18.304Z,142.93
2018-12-09T22:19:47.636Z,144.25
2018-12-09T22:22:16.896Z,136.50
2018-12-09T22:24:46.317Z,133.93
2018-12-09T22:27:15.598Z,128.72
2018-12-09T22:29:44.907Z,134.97
2018-12-09T22:32:14.113Z,137.40
2018-12-09T22:34:43.612Z,129.97
2018-12-09T22:37:13.039Z,126.02
2018-12-09T22:39:42.455Z,133.15
2018-12-09T22:42:11.938Z,131.95
2018-12-09T22:44:41.391Z,125.53
2018-12-09T22:47:10.680Z,139.18
2018-12-09T22:49:40.125Z,130.47
2018-12-09T22:52:09.565Z,127.82
2018-12-09T22:54:38.944Z,126.38
2018-12-09T22:57:08.235Z,123.75
2018-12-09T22:59:37.735Z,123.22
2018-12-09T23:02:12.176Z,125.53
2018-12-09T23:04:41.576Z,119.50
2018-12-09T23:07:15.791Z,117.40
2018-12-09T23:09:45.304Z,122.28
2018-12-09T23:12:14.599Z,125.38
2018-12-09T23:14:44.013Z,130.12
2018-12-09T23:17:13.391Z,114.88
2018-12-09T23:19:42.719Z,114.22
2018-12-09T23:22:12.197Z,119.82
2018-12-09T23:24:41.599Z,111.20
2018-12-09T23:27:10.900Z,110.17
2018-12-09T23:29:40.229Z,114.95
2018-12-09T23:32:09.661Z,114.82
2018-12-09T23:34:38.920Z,108.80
2018-12-09T23:37:08.411Z,108.25
2018-12-09T23:39:37.820Z,105.22
2018-12-09T23:42:07.168Z,109.90
2018-12-09T23:44:36.650Z,104.12
2018-12-09T23:47:06.040Z,109.67
2018-12-09T23:49:35.456Z,106.37
2018-12-09T23:52:04.744Z,106.58
2018-12-09T23:54:34.156Z,107.78
2018-12-09T23:57:03.661Z,104.80
2018-12-09T23:59:33.075Z,102.12
